Arch, New Mexico
Current Conditions -  °F | °C
As of 4:18 AM on Saturday 20 Dec 2014 (Local Time) from KCVS Reporting Station
Haze Haze  
Wind Chill: -5°   Ceiling: Unl
Heat Index: -5°   Visibility: 1.5mi
Dew Point: -6°   Wind: 2mph
Humidity: 93%   Direction: 60°ENE
Pressure: 30.08"   Gusts: NA
Location:  34.1669°N, 103.266°W
Report Text: KCVS 201118Z 06002KT 1 1/2SM BR CLR M05/M06 A3008 RMK AO2A $
Loading
Personal Weather Stations






























Interactive Weather Map New forecast layout! Learn more

10-Day Weather Forecast

Advertisements
Track Severe Weather on mobile